sensor_id;sensor_type;location;lat;lon;timestamp;P1;durP1;ratioP1;P2;durP2;ratioP2
22778;SDS011;11556;51.194;3.800;2023-03-02T00:07:10;13.55;;;7.35;;
22778;SDS011;11556;51.194;3.800;2023-03-02T00:09:39;12.23;;;7.53;;
22778;SDS011;11556;51.194;3.800;2023-03-02T00:12:07;13.20;;;8.30;;
22778;SDS011;11556;51.194;3.800;2023-03-02T00:14:32;12.70;;;7.68;;
22778;SDS011;11556;51.194;3.800;2023-03-02T00:16:58;14.98;;;7.40;;
22778;SDS011;11556;51.194;3.800;2023-03-02T00:19:24;15.32;;;8.05;;
22778;SDS011;11556;51.194;3.800;2023-03-02T00:21:49;12.25;;;7.50;;
22778;SDS011;11556;51.194;3.800;2023-03-02T00:24:15;13.95;;;8.18;;
22778;SDS011;11556;51.194;3.800;2023-03-02T00:26:41;13.05;;;7.75;;
22778;SDS011;11556;51.194;3.800;2023-03-02T00:29:06;14.68;;;7.40;;
22778;SDS011;11556;51.194;3.800;2023-03-02T00:31:33;12.80;;;7.50;;
22778;SDS011;11556;51.194;3.800;2023-03-02T00:33:58;11.93;;;7.00;;
22778;SDS011;11556;51.194;3.800;2023-03-02T00:36:24;13.05;;;7.68;;
22778;SDS011;11556;51.194;3.800;2023-03-02T00:38:50;14.32;;;7.68;;
22778;SDS011;11556;51.194;3.800;2023-03-02T00:41:16;12.23;;;7.57;;
22778;SDS011;11556;51.194;3.800;2023-03-02T00:43:42;12.55;;;7.75;;
22778;SDS011;11556;51.194;3.800;2023-03-02T00:46:12;14.90;;;8.20;;
22778;SDS011;11556;51.194;3.800;2023-03-02T00:48:40;14.35;;;8.27;;
22778;SDS011;11556;51.194;3.800;2023-03-02T00:51:06;13.32;;;8.02;;
22778;SDS011;11556;51.194;3.800;2023-03-02T00:53:32;12.45;;;7.75;;
22778;SDS011;11556;51.194;3.800;2023-03-02T00:56:06;13.23;;;7.85;;
22778;SDS011;11556;51.194;3.800;2023-03-02T00:58:32;16.60;;;7.53;;
22778;SDS011;11556;51.194;3.800;2023-03-02T01:00:58;16.23;;;8.32;;
22778;SDS011;11556;51.194;3.800;2023-03-02T01:03:29;17.23;;;8.27;;
22778;SDS011;11556;51.194;3.800;2023-03-02T01:05:55;12.00;;;7.28;;
22778;SDS011;11556;51.194;3.800;2023-03-02T01:08:22;13.23;;;7.82;;
22778;SDS011;11556;51.194;3.800;2023-03-02T01:10:49;11.38;;;7.10;;
22778;SDS011;11556;51.194;3.800;2023-03-02T01:13:16;14.25;;;8.10;;
22778;SDS011;11556;51.194;3.800;2023-03-02T01:15:42;15.38;;;8.20;;
22778;SDS011;11556;51.194;3.800;2023-03-02T01:18:08;14.48;;;8.05;;
22778;SDS011;11556;51.194;3.800;2023-03-02T01:20:33;14.52;;;8.05;;
22778;SDS011;11556;51.194;3.800;2023-03-02T01:22:59;13.35;;;8.05;;
22778;SDS011;11556;51.194;3.800;2023-03-02T01:25:24;16.33;;;7.97;;
22778;SDS011;11556;51.194;3.800;2023-03-02T01:27:50;13.90;;;8.25;;
22778;SDS011;11556;51.194;3.800;2023-03-02T01:30:16;13.98;;;8.45;;
22778;SDS011;11556;51.194;3.800;2023-03-02T01:32:41;13.30;;;7.72;;
22778;SDS011;11556;51.194;3.800;2023-03-02T01:35:07;14.55;;;8.57;;
22778;SDS011;11556;51.194;3.800;2023-03-02T01:37:33;12.95;;;7.85;;
22778;SDS011;11556;51.194;3.800;2023-03-02T01:39:58;12.60;;;7.38;;
22778;SDS011;11556;51.194;3.800;2023-03-02T01:42:26;19.33;;;8.30;;
22778;SDS011;11556;51.194;3.800;2023-03-02T01:44:57;14.23;;;7.88;;
22778;SDS011;11556;51.194;3.800;2023-03-02T01:47:34;13.70;;;8.07;;
22778;SDS011;11556;51.194;3.800;2023-03-02T01:52:44;13.98;;;8.15;;
22778;SDS011;11556;51.194;3.800;2023-03-02T01:55:11;12.77;;;7.90;;
22778;SDS011;11556;51.194;3.800;2023-03-02T01:57:45;15.52;;;7.43;;
22778;SDS011;11556;51.194;3.800;2023-03-02T02:00:15;12.00;;;7.22;;
22778;SDS011;11556;51.194;3.800;2023-03-02T02:02:44;11.88;;;7.85;;
22778;SDS011;11556;51.194;3.800;2023-03-02T02:05:11;13.25;;;7.80;;
22778;SDS011;11556;51.194;3.800;2023-03-02T02:07:41;15.90;;;8.10;;
22778;SDS011;11556;51.194;3.800;2023-03-02T02:10:07;13.38;;;7.88;;
22778;SDS011;11556;51.194;3.800;2023-03-02T02:12:34;14.20;;;7.95;;
22778;SDS011;11556;51.194;3.800;2023-03-02T02:15:00;15.13;;;8.13;;
22778;SDS011;11556;51.194;3.800;2023-03-02T02:17:27;16.20;;;7.95;;
22778;SDS011;11556;51.194;3.800;2023-03-02T02:25:39;13.68;;;7.32;;
22778;SDS011;11556;51.194;3.800;2023-03-02T02:28:18;12.07;;;7.55;;
22778;SDS011;11556;51.194;3.800;2023-03-02T02:30:54;15.40;;;7.88;;
22778;SDS011;11556;51.194;3.800;2023-03-02T02:33:43;14.30;;;7.60;;
22778;SDS011;11556;51.194;3.800;2023-03-02T02:36:13;13.45;;;7.45;;
22778;SDS011;11556;51.194;3.800;2023-03-02T02:38:45;13.35;;;7.43;;
22778;SDS011;11556;51.194;3.800;2023-03-02T02:41:17;18.63;;;8.00;;
22778;SDS011;11556;51.194;3.800;2023-03-02T02:43:45;12.95;;;7.45;;
22778;SDS011;11556;51.194;3.800;2023-03-02T02:46:11;17.23;;;8.00;;
22778;SDS011;11556;51.194;3.800;2023-03-02T02:48:37;16.33;;;8.10;;
22778;SDS011;11556;51.194;3.800;2023-03-02T02:51:03;14.00;;;8.15;;
22778;SDS011;11556;51.194;3.800;2023-03-02T02:56:23;16.58;;;7.95;;
22778;SDS011;11556;51.194;3.800;2023-03-02T02:58:51;12.63;;;7.97;;
22778;SDS011;11556;51.194;3.800;2023-03-02T03:01:20;15.68;;;8.48;;
22778;SDS011;11556;51.194;3.800;2023-03-02T03:03:54;14.50;;;8.55;;
22778;SDS011;11556;51.194;3.800;2023-03-02T03:06:24;13.02;;;7.93;;
22778;SDS011;11556;51.194;3.800;2023-03-02T03:08:52;13.15;;;7.50;;
22778;SDS011;11556;51.194;3.800;2023-03-02T03:11:22;18.35;;;9.10;;
22778;SDS011;11556;51.194;3.800;2023-03-02T03:13:54;15.43;;;8.75;;
22778;SDS011;11556;51.194;3.800;2023-03-02T03:16:27;14.93;;;8.02;;
22778;SDS011;11556;51.194;3.800;2023-03-02T03:18:55;14.82;;;8.32;;
22778;SDS011;11556;51.194;3.800;2023-03-02T03:21:25;14.02;;;8.10;;
22778;SDS011;11556;51.194;3.800;2023-03-02T03:23:51;14.50;;;8.52;;
22778;SDS011;11556;51.194;3.800;2023-03-02T03:26:17;13.27;;;7.90;;
22778;SDS011;11556;51.194;3.800;2023-03-02T03:28:43;14.27;;;8.63;;
22778;SDS011;11556;51.194;3.800;2023-03-02T03:31:08;15.88;;;8.10;;
22778;SDS011;11556;51.194;3.800;2023-03-02T03:33:34;15.02;;;8.25;;
22778;SDS011;11556;51.194;3.800;2023-03-02T03:36:00;16.02;;;8.90;;
22778;SDS011;11556;51.194;3.800;2023-03-02T03:38:25;16.58;;;8.63;;
22778;SDS011;11556;51.194;3.800;2023-03-02T03:40:51;15.95;;;8.98;;
22778;SDS011;11556;51.194;3.800;2023-03-02T03:43:17;16.35;;;9.30;;
22778;SDS011;11556;51.194;3.800;2023-03-02T03:45:42;16.13;;;8.45;;
22778;SDS011;11556;51.194;3.800;2023-03-02T03:48:08;17.52;;;8.30;;
22778;SDS011;11556;51.194;3.800;2023-03-02T03:50:33;18.33;;;9.55;;
22778;SDS011;11556;51.194;3.800;2023-03-02T03:53:00;19.65;;;9.57;;
22778;SDS011;11556;51.194;3.800;2023-03-02T03:55:25;17.27;;;9.70;;
22778;SDS011;11556;51.194;3.800;2023-03-02T03:57:53;17.77;;;9.90;;
22778;SDS011;11556;51.194;3.800;2023-03-02T04:00:19;23.35;;;10.55;;
22778;SDS011;11556;51.194;3.800;2023-03-02T04:02:46;17.85;;;9.52;;
22778;SDS011;11556;51.194;3.800;2023-03-02T04:05:12;19.85;;;10.23;;
22778;SDS011;11556;51.194;3.800;2023-03-02T04:07:38;21.35;;;9.73;;
22778;SDS011;11556;51.194;3.800;2023-03-02T04:10:05;18.33;;;9.98;;
22778;SDS011;11556;51.194;3.800;2023-03-02T04:12:32;19.98;;;10.60;;
22778;SDS011;11556;51.194;3.800;2023-03-02T04:15:00;21.20;;;10.73;;
22778;SDS011;11556;51.194;3.800;2023-03-02T04:17:26;22.80;;;11.65;;
22778;SDS011;11556;51.194;3.800;2023-03-02T04:19:53;26.95;;;11.93;;
22778;SDS011;11556;51.194;3.800;2023-03-02T04:22:19;25.92;;;13.07;;
22778;SDS011;11556;51.194;3.800;2023-03-02T04:24:45;26.23;;;13.10;;
22778;SDS011;11556;51.194;3.800;2023-03-02T04:27:12;25.05;;;13.23;;
22778;SDS011;11556;51.194;3.800;2023-03-02T04:29:38;27.42;;;14.35;;
22778;SDS011;11556;51.194;3.800;2023-03-02T04:32:05;28.90;;;14.15;;
22778;SDS011;11556;51.194;3.800;2023-03-02T04:34:31;35.13;;;16.98;;
22778;SDS011;11556;51.194;3.800;2023-03-02T04:36:57;29.63;;;15.00;;
22778;SDS011;11556;51.194;3.800;2023-03-02T04:39:23;37.28;;;17.40;;
22778;SDS011;11556;51.194;3.800;2023-03-02T04:41:50;41.58;;;17.95;;
22778;SDS011;11556;51.194;3.800;2023-03-02T04:44:16;35.63;;;17.90;;
22778;SDS011;11556;51.194;3.800;2023-03-02T04:46:43;41.42;;;19.13;;
22778;SDS011;11556;51.194;3.800;2023-03-02T04:49:10;46.22;;;20.35;;
22778;SDS011;11556;51.194;3.800;2023-03-02T04:51:37;42.33;;;19.35;;
22778;SDS011;11556;51.194;3.800;2023-03-02T04:54:09;47.78;;;20.35;;
22778;SDS011;11556;51.194;3.800;2023-03-02T04:56:41;49.97;;;21.02;;
22778;SDS011;11556;51.194;3.800;2023-03-02T04:59:07;51.45;;;22.08;;
22778;SDS011;11556;51.194;3.800;2023-03-02T05:01:32;51.40;;;22.67;;
22778;SDS011;11556;51.194;3.800;2023-03-02T05:03:58;51.97;;;23.77;;
22778;SDS011;11556;51.194;3.800;2023-03-02T05:06:24;57.35;;;23.75;;
22778;SDS011;11556;51.194;3.800;2023-03-02T05:08:50;52.70;;;22.60;;
22778;SDS011;11556;51.194;3.800;2023-03-02T05:11:17;56.30;;;23.67;;
22778;SDS011;11556;51.194;3.800;2023-03-02T05:13:55;61.83;;;25.10;;
22778;SDS011;11556;51.194;3.800;2023-03-02T05:16:23;64.30;;;25.50;;
22778;SDS011;11556;51.194;3.800;2023-03-02T05:18:52;65.38;;;26.35;;
22778;SDS011;11556;51.194;3.800;2023-03-02T05:21:19;67.97;;;27.58;;
22778;SDS011;11556;51.194;3.800;2023-03-02T05:23:45;65.25;;;27.00;;
22778;SDS011;11556;51.194;3.800;2023-03-02T05:26:11;68.18;;;27.48;;
22778;SDS011;11556;51.194;3.800;2023-03-02T05:28:37;68.28;;;27.98;;
22778;SDS011;11556;51.194;3.800;2023-03-02T05:31:04;67.45;;;26.55;;
22778;SDS011;11556;51.194;3.800;2023-03-02T05:33:29;75.32;;;29.02;;
22778;SDS011;11556;51.194;3.800;2023-03-02T05:35:55;67.57;;;28.63;;
22778;SDS011;11556;51.194;3.800;2023-03-02T05:38:21;71.57;;;28.40;;
22778;SDS011;11556;51.194;3.800;2023-03-02T05:40:47;69.20;;;27.77;;
22778;SDS011;11556;51.194;3.800;2023-03-02T05:43:17;69.55;;;28.20;;
22778;SDS011;11556;51.194;3.800;2023-03-02T05:45:44;74.05;;;30.23;;
22778;SDS011;11556;51.194;3.800;2023-03-02T05:48:13;71.70;;;30.55;;
22778;SDS011;11556;51.194;3.800;2023-03-02T05:50:39;74.50;;;30.45;;
22778;SDS011;11556;51.194;3.800;2023-03-02T05:53:05;74.05;;;29.52;;
22778;SDS011;11556;51.194;3.800;2023-03-02T05:55:31;76.60;;;30.35;;
22778;SDS011;11556;51.194;3.800;2023-03-02T05:58:01;81.63;;;30.52;;
22778;SDS011;11556;51.194;3.800;2023-03-02T06:00:31;73.53;;;29.67;;
22778;SDS011;11556;51.194;3.800;2023-03-02T06:02:57;79.55;;;30.42;;
22778;SDS011;11556;51.194;3.800;2023-03-02T06:05:22;77.65;;;30.98;;
22778;SDS011;11556;51.194;3.800;2023-03-02T06:07:48;79.13;;;30.55;;
22778;SDS011;11556;51.194;3.800;2023-03-02T06:10:14;79.72;;;32.28;;
22778;SDS011;11556;51.194;3.800;2023-03-02T06:12:40;80.63;;;31.52;;
22778;SDS011;11556;51.194;3.800;2023-03-02T06:15:06;81.63;;;31.98;;
22778;SDS011;11556;51.194;3.800;2023-03-02T06:17:33;76.45;;;30.63;;
22778;SDS011;11556;51.194;3.800;2023-03-02T06:19:59;79.80;;;29.80;;
22778;SDS011;11556;51.194;3.800;2023-03-02T06:22:24;76.40;;;29.58;;
22778;SDS011;11556;51.194;3.800;2023-03-02T06:24:50;84.43;;;31.80;;
22778;SDS011;11556;51.194;3.800;2023-03-02T06:27:15;81.53;;;30.63;;
22778;SDS011;11556;51.194;3.800;2023-03-02T06:29:41;80.28;;;31.15;;
22778;SDS011;11556;51.194;3.800;2023-03-02T06:32:07;78.25;;;30.80;;
22778;SDS011;11556;51.194;3.800;2023-03-02T06:34:34;82.53;;;31.27;;
22778;SDS011;11556;51.194;3.800;2023-03-02T06:36:59;89.07;;;31.45;;
22778;SDS011;11556;51.194;3.800;2023-03-02T06:39:25;79.72;;;30.52;;
22778;SDS011;11556;51.194;3.800;2023-03-02T06:41:51;80.75;;;31.00;;
22778;SDS011;11556;51.194;3.800;2023-03-02T06:44:16;84.63;;;32.33;;
22778;SDS011;11556;51.194;3.800;2023-03-02T06:46:42;86.45;;;30.83;;
22778;SDS011;11556;51.194;3.800;2023-03-02T06:49:09;79.07;;;30.08;;
22778;SDS011;11556;51.194;3.800;2023-03-02T06:51:36;83.60;;;31.58;;
22778;SDS011;11556;51.194;3.800;2023-03-02T06:54:02;79.70;;;30.33;;
22778;SDS011;11556;51.194;3.800;2023-03-02T06:56:30;83.10;;;31.25;;
22778;SDS011;11556;51.194;3.800;2023-03-02T06:58:56;85.35;;;31.80;;
22778;SDS011;11556;51.194;3.800;2023-03-02T07:01:22;89.22;;;31.95;;
22778;SDS011;11556;51.194;3.800;2023-03-02T07:03:47;82.28;;;31.27;;
22778;SDS011;11556;51.194;3.800;2023-03-02T07:06:13;86.90;;;32.05;;
22778;SDS011;11556;51.194;3.800;2023-03-02T07:08:39;82.47;;;30.48;;
22778;SDS011;11556;51.194;3.800;2023-03-02T07:11:05;81.70;;;31.45;;
22778;SDS011;11556;51.194;3.800;2023-03-02T07:13:32;85.18;;;31.35;;
22778;SDS011;11556;51.194;3.800;2023-03-02T07:15:58;85.15;;;32.47;;
22778;SDS011;11556;51.194;3.800;2023-03-02T07:18:24;83.45;;;32.95;;
22778;SDS011;11556;51.194;3.800;2023-03-02T07:20:49;76.60;;;31.00;;
22778;SDS011;11556;51.194;3.800;2023-03-02T07:23:15;75.78;;;30.13;;
22778;SDS011;11556;51.194;3.800;2023-03-02T07:25:40;70.22;;;29.67;;
22778;SDS011;11556;51.194;3.800;2023-03-02T07:28:06;72.72;;;28.45;;
22778;SDS011;11556;51.194;3.800;2023-03-02T07:30:32;76.45;;;29.60;;
22778;SDS011;11556;51.194;3.800;2023-03-02T07:32:57;68.65;;;27.80;;
22778;SDS011;11556;51.194;3.800;2023-03-02T07:35:23;65.88;;;26.50;;
22778;SDS011;11556;51.194;3.800;2023-03-02T07:37:50;60.90;;;26.95;;
22778;SDS011;11556;51.194;3.800;2023-03-02T07:40:16;63.92;;;26.55;;
22778;SDS011;11556;51.194;3.800;2023-03-02T07:42:41;57.40;;;25.33;;
22778;SDS011;11556;51.194;3.800;2023-03-02T07:45:07;56.53;;;24.42;;
22778;SDS011;11556;51.194;3.800;2023-03-02T07:47:34;56.60;;;24.55;;
22778;SDS011;11556;51.194;3.800;2023-03-02T07:49:59;53.92;;;23.65;;
22778;SDS011;11556;51.194;3.800;2023-03-02T07:52:27;60.47;;;25.83;;
22778;SDS011;11556;51.194;3.800;2023-03-02T07:54:54;56.45;;;24.88;;
22778;SDS011;11556;51.194;3.800;2023-03-02T07:57:19;54.35;;;24.55;;
22778;SDS011;11556;51.194;3.800;2023-03-02T07:59:45;52.38;;;23.95;;
22778;SDS011;11556;51.194;3.800;2023-03-02T08:02:11;52.25;;;23.38;;
22778;SDS011;11556;51.194;3.800;2023-03-02T08:04:39;51.92;;;24.27;;
22778;SDS011;11556;51.194;3.800;2023-03-02T08:07:06;52.40;;;24.52;;
22778;SDS011;11556;51.194;3.800;2023-03-02T08:09:32;54.17;;;24.65;;
22778;SDS011;11556;51.194;3.800;2023-03-02T08:11:57;54.20;;;23.50;;
22778;SDS011;11556;51.194;3.800;2023-03-02T08:14:23;48.58;;;22.73;;
22778;SDS011;11556;51.194;3.800;2023-03-02T08:16:49;49.42;;;22.63;;
22778;SDS011;11556;51.194;3.800;2023-03-02T08:19:16;48.55;;;21.95;;
22778;SDS011;11556;51.194;3.800;2023-03-02T08:21:43;50.72;;;23.33;;
22778;SDS011;11556;51.194;3.800;2023-03-02T08:24:09;50.63;;;23.40;;
22778;SDS011;11556;51.194;3.800;2023-03-02T08:26:36;50.85;;;24.02;;
22778;SDS011;11556;51.194;3.800;2023-03-02T08:29:02;49.38;;;22.15;;
22778;SDS011;11556;51.194;3.800;2023-03-02T08:31:29;47.88;;;21.95;;
22778;SDS011;11556;51.194;3.800;2023-03-02T08:33:55;47.90;;;21.25;;
22778;SDS011;11556;51.194;3.800;2023-03-02T08:36:20;49.38;;;21.73;;
22778;SDS011;11556;51.194;3.800;2023-03-02T08:38:47;45.20;;;21.25;;
22778;SDS011;11556;51.194;3.800;2023-03-02T08:41:14;49.38;;;22.10;;
22778;SDS011;11556;51.194;3.800;2023-03-02T08:43:42;46.80;;;19.48;;
22778;SDS011;11556;51.194;3.800;2023-03-02T08:46:09;44.17;;;21.35;;
22778;SDS011;11556;51.194;3.800;2023-03-02T08:48:35;45.00;;;20.65;;
22778;SDS011;11556;51.194;3.800;2023-03-02T08:51:05;45.35;;;20.08;;
22778;SDS011;11556;51.194;3.800;2023-03-02T08:53:34;46.53;;;19.98;;
22778;SDS011;11556;51.194;3.800;2023-03-02T08:56:02;46.25;;;19.98;;
22778;SDS011;11556;51.194;3.800;2023-03-02T08:58:31;44.03;;;20.40;;
22778;SDS011;11556;51.194;3.800;2023-03-02T09:00:56;42.83;;;20.48;;
22778;SDS011;11556;51.194;3.800;2023-03-02T09:03:22;50.28;;;20.55;;
22778;SDS011;11556;51.194;3.800;2023-03-02T09:05:48;39.47;;;19.77;;
22778;SDS011;11556;51.194;3.800;2023-03-02T09:08:13;44.78;;;20.65;;
22778;SDS011;11556;51.194;3.800;2023-03-02T09:10:39;42.15;;;19.90;;
22778;SDS011;11556;51.194;3.800;2023-03-02T09:13:04;48.13;;;20.58;;
22778;SDS011;11556;51.194;3.800;2023-03-02T09:15:31;39.67;;;17.73;;
22778;SDS011;11556;51.194;3.800;2023-03-02T09:17:56;48.50;;;20.20;;
22778;SDS011;11556;51.194;3.800;2023-03-02T09:20:22;42.55;;;19.10;;
22778;SDS011;11556;51.194;3.800;2023-03-02T09:22:48;45.58;;;18.60;;
22778;SDS011;11556;51.194;3.800;2023-03-02T09:25:15;41.70;;;19.33;;
22778;SDS011;11556;51.194;3.800;2023-03-02T09:27:42;40.72;;;19.15;;
22778;SDS011;11556;51.194;3.800;2023-03-02T09:30:08;44.50;;;19.55;;
22778;SDS011;11556;51.194;3.800;2023-03-02T09:32:35;37.20;;;18.30;;
22778;SDS011;11556;51.194;3.800;2023-03-02T09:35:00;38.95;;;18.98;;
22778;SDS011;11556;51.194;3.800;2023-03-02T09:37:26;38.63;;;18.85;;
22778;SDS011;11556;51.194;3.800;2023-03-02T09:39:52;35.33;;;18.00;;
22778;SDS011;11556;51.194;3.800;2023-03-02T09:45:30;37.55;;;18.02;;
22778;SDS011;11556;51.194;3.800;2023-03-02T09:48:16;36.42;;;17.88;;
22778;SDS011;11556;51.194;3.800;2023-03-02T09:50:54;34.88;;;17.23;;
22778;SDS011;11556;51.194;3.800;2023-03-02T09:58:36;34.30;;;16.75;;
22778;SDS011;11556;51.194;3.800;2023-03-02T10:01:10;33.58;;;17.95;;
22778;SDS011;11556;51.194;3.800;2023-03-02T10:03:44;35.45;;;17.58;;
22778;SDS011;11556;51.194;3.800;2023-03-02T10:06:16;36.83;;;18.40;;
22778;SDS011;11556;51.194;3.800;2023-03-02T10:08:42;32.08;;;16.95;;
22778;SDS011;11556;51.194;3.800;2023-03-02T10:11:19;31.33;;;16.83;;
22778;SDS011;11556;51.194;3.800;2023-03-02T10:25:04;34.60;;;16.38;;
22778;SDS011;11556;51.194;3.800;2023-03-02T10:28:19;29.05;;;16.23;;
22778;SDS011;11556;51.194;3.800;2023-03-02T10:30:41;32.35;;;16.05;;
22778;SDS011;11556;51.194;3.800;2023-03-02T10:33:16;33.20;;;17.15;;
22778;SDS011;11556;51.194;3.800;2023-03-02T10:35:47;33.88;;;17.55;;
22778;SDS011;11556;51.194;3.800;2023-03-02T10:38:15;33.28;;;16.98;;
22778;SDS011;11556;51.194;3.800;2023-03-02T10:40:45;30.75;;;16.45;;
22778;SDS011;11556;51.194;3.800;2023-03-02T10:43:28;32.72;;;17.10;;
22778;SDS011;11556;51.194;3.800;2023-03-02T10:46:14;30.57;;;17.10;;
22778;SDS011;11556;51.194;3.800;2023-03-02T10:51:24;34.53;;;17.10;;
22778;SDS011;11556;51.194;3.800;2023-03-02T10:54:19;35.80;;;17.73;;
22778;SDS011;11556;51.194;3.800;2023-03-02T10:56:47;33.30;;;17.90;;
22778;SDS011;11556;51.194;3.800;2023-03-02T11:02:00;33.55;;;17.67;;
22778;SDS011;11556;51.194;3.800;2023-03-02T11:04:35;30.13;;;16.48;;
22778;SDS011;11556;51.194;3.800;2023-03-02T11:07:13;33.35;;;17.10;;
22778;SDS011;11556;51.194;3.800;2023-03-02T11:09:57;35.20;;;17.95;;
22778;SDS011;11556;51.194;3.800;2023-03-02T11:12:31;33.58;;;17.83;;
22778;SDS011;11556;51.194;3.800;2023-03-02T11:15:46;32.60;;;17.10;;
22778;SDS011;11556;51.194;3.800;2023-03-02T11:20:32;32.83;;;16.70;;
22778;SDS011;11556;51.194;3.800;2023-03-02T11:23:14;29.20;;;16.42;;
22778;SDS011;11556;51.194;3.800;2023-03-02T11:25:54;28.33;;;16.63;;
22778;SDS011;11556;51.194;3.800;2023-03-02T11:28:39;30.98;;;16.55;;
22778;SDS011;11556;51.194;3.800;2023-03-02T11:34:01;28.30;;;16.65;;
22778;SDS011;11556;51.194;3.800;2023-03-02T11:36:47;29.10;;;16.15;;
22778;SDS011;11556;51.194;3.800;2023-03-02T11:39:35;28.60;;;16.17;;
22778;SDS011;11556;51.194;3.800;2023-03-02T11:42:34;29.63;;;15.95;;
22778;SDS011;11556;51.194;3.800;2023-03-02T11:45:02;29.17;;;15.45;;
22778;SDS011;11556;51.194;3.800;2023-03-02T11:47:52;27.17;;;14.98;;
22778;SDS011;11556;51.194;3.800;2023-03-02T11:50:25;25.95;;;14.27;;
22778;SDS011;11556;51.194;3.800;2023-03-02T11:52:52;27.33;;;15.38;;
22778;SDS011;11556;51.194;3.800;2023-03-02T11:55:23;24.67;;;14.07;;
22778;SDS011;11556;51.194;3.800;2023-03-02T11:57:56;27.45;;;14.93;;
22778;SDS011;11556;51.194;3.800;2023-03-02T12:05:35;25.35;;;14.73;;
22778;SDS011;11556;51.194;3.800;2023-03-02T12:08:05;28.92;;;15.88;;
22778;SDS011;11556;51.194;3.800;2023-03-02T12:15:46;32.10;;;14.73;;
22778;SDS011;11556;51.194;3.800;2023-03-02T12:21:12;30.58;;;16.00;;
22778;SDS011;11556;51.194;3.800;2023-03-02T12:34:14;27.17;;;15.30;;
22778;SDS011;11556;51.194;3.800;2023-03-02T12:37:00;32.30;;;16.73;;
22778;SDS011;11556;51.194;3.800;2023-03-02T12:48:03;27.25;;;16.05;;
22778;SDS011;11556;51.194;3.800;2023-03-02T12:50:43;30.15;;;15.15;;
22778;SDS011;11556;51.194;3.800;2023-03-02T12:53:15;32.45;;;16.63;;
22778;SDS011;11556;51.194;3.800;2023-03-02T12:58:22;29.63;;;16.23;;
22778;SDS011;11556;51.194;3.800;2023-03-02T13:00:55;25.73;;;15.55;;
22778;SDS011;11556;51.194;3.800;2023-03-02T13:03:25;30.60;;;16.25;;
22778;SDS011;11556;51.194;3.800;2023-03-02T13:06:10;30.48;;;16.27;;
22778;SDS011;11556;51.194;3.800;2023-03-02T13:08:42;28.83;;;15.35;;
22778;SDS011;11556;51.194;3.800;2023-03-02T13:11:10;30.70;;;16.73;;
22778;SDS011;11556;51.194;3.800;2023-03-02T13:13:40;33.78;;;16.30;;
22778;SDS011;11556;51.194;3.800;2023-03-02T13:16:21;29.88;;;15.82;;
22778;SDS011;11556;51.194;3.800;2023-03-02T13:18:48;31.00;;;15.88;;
22778;SDS011;11556;51.194;3.800;2023-03-02T13:21:18;30.40;;;17.20;;
22778;SDS011;11556;51.194;3.800;2023-03-02T13:23:46;27.27;;;15.65;;
22778;SDS011;11556;51.194;3.800;2023-03-02T13:26:30;29.70;;;16.25;;
22778;SDS011;11556;51.194;3.800;2023-03-02T13:29:15;33.55;;;17.80;;
22778;SDS011;11556;51.194;3.800;2023-03-02T13:31:47;30.42;;;15.40;;
22778;SDS011;11556;51.194;3.800;2023-03-02T13:34:23;27.60;;;14.80;;
22778;SDS011;11556;51.194;3.800;2023-03-02T13:36:50;27.38;;;14.95;;
22778;SDS011;11556;51.194;3.800;2023-03-02T13:39:19;28.15;;;15.27;;
22778;SDS011;11556;51.194;3.800;2023-03-02T13:42:00;25.95;;;13.73;;
22778;SDS011;11556;51.194;3.800;2023-03-02T13:44:28;25.42;;;14.65;;
22778;SDS011;11556;51.194;3.800;2023-03-02T13:46:55;27.23;;;14.55;;
22778;SDS011;11556;51.194;3.800;2023-03-02T13:49:29;29.67;;;14.77;;
22778;SDS011;11556;51.194;3.800;2023-03-02T13:52:00;30.13;;;15.25;;
22778;SDS011;11556;51.194;3.800;2023-03-02T13:54:29;24.23;;;13.57;;
22778;SDS011;11556;51.194;3.800;2023-03-02T13:56:57;29.98;;;14.27;;
22778;SDS011;11556;51.194;3.800;2023-03-02T13:59:26;27.10;;;13.60;;
22778;SDS011;11556;51.194;3.800;2023-03-02T14:01:52;26.88;;;13.80;;
22778;SDS011;11556;51.194;3.800;2023-03-02T14:04:18;28.48;;;13.70;;
22778;SDS011;11556;51.194;3.800;2023-03-02T14:06:48;23.90;;;12.55;;
22778;SDS011;11556;51.194;3.800;2023-03-02T14:09:15;24.33;;;13.18;;
22778;SDS011;11556;51.194;3.800;2023-03-02T14:11:41;25.90;;;12.80;;
22778;SDS011;11556;51.194;3.800;2023-03-02T14:14:11;24.65;;;13.05;;
22778;SDS011;11556;51.194;3.800;2023-03-02T14:16:40;27.73;;;13.55;;
22778;SDS011;11556;51.194;3.800;2023-03-02T14:19:08;26.20;;;12.82;;
22778;SDS011;11556;51.194;3.800;2023-03-02T14:21:34;23.05;;;12.75;;
22778;SDS011;11556;51.194;3.800;2023-03-02T14:24:00;22.73;;;12.63;;
22778;SDS011;11556;51.194;3.800;2023-03-02T14:28:59;22.42;;;12.52;;
22778;SDS011;11556;51.194;3.800;2023-03-02T14:31:28;24.02;;;12.07;;
22778;SDS011;11556;51.194;3.800;2023-03-02T14:33:54;22.67;;;12.55;;
22778;SDS011;11556;51.194;3.800;2023-03-02T14:36:26;23.38;;;12.10;;
22778;SDS011;11556;51.194;3.800;2023-03-02T14:38:55;22.48;;;12.25;;
22778;SDS011;11556;51.194;3.800;2023-03-02T14:41:23;20.98;;;11.52;;
22778;SDS011;11556;51.194;3.800;2023-03-02T14:43:49;22.58;;;11.57;;
22778;SDS011;11556;51.194;3.800;2023-03-02T14:46:15;23.85;;;11.73;;
22778;SDS011;11556;51.194;3.800;2023-03-02T14:48:41;23.23;;;11.25;;
22778;SDS011;11556;51.194;3.800;2023-03-02T14:51:25;26.30;;;11.50;;
22778;SDS011;11556;51.194;3.800;2023-03-02T14:53:55;21.63;;;11.32;;
22778;SDS011;11556;51.194;3.800;2023-03-02T14:56:22;21.70;;;10.65;;
22778;SDS011;11556;51.194;3.800;2023-03-02T14:58:49;23.13;;;10.90;;
22778;SDS011;11556;51.194;3.800;2023-03-02T15:01:16;20.55;;;11.32;;
22778;SDS011;11556;51.194;3.800;2023-03-02T15:03:42;21.90;;;10.45;;
22778;SDS011;11556;51.194;3.800;2023-03-02T15:06:29;25.38;;;12.15;;
22778;SDS011;11556;51.194;3.800;2023-03-02T15:08:56;21.15;;;11.23;;
22778;SDS011;11556;51.194;3.800;2023-03-02T15:11:23;20.80;;;10.80;;
22778;SDS011;11556;51.194;3.800;2023-03-02T15:13:50;20.08;;;9.45;;
22778;SDS011;11556;51.194;3.800;2023-03-02T15:16:16;23.20;;;10.80;;
22778;SDS011;11556;51.194;3.800;2023-03-02T15:18:42;21.20;;;10.43;;
22778;SDS011;11556;51.194;3.800;2023-03-02T15:21:13;20.70;;;10.35;;
22778;SDS011;11556;51.194;3.800;2023-03-02T15:23:41;18.77;;;9.98;;
22778;SDS011;11556;51.194;3.800;2023-03-02T15:26:07;19.30;;;10.13;;
22778;SDS011;11556;51.194;3.800;2023-03-02T15:28:34;21.83;;;10.48;;
22778;SDS011;11556;51.194;3.800;2023-03-02T15:31:09;17.88;;;9.95;;
22778;SDS011;11556;51.194;3.800;2023-03-02T15:33:38;19.58;;;9.38;;
22778;SDS011;11556;51.194;3.800;2023-03-02T15:36:04;21.25;;;9.40;;
22778;SDS011;11556;51.194;3.800;2023-03-02T15:38:31;17.08;;;8.85;;
22778;SDS011;11556;51.194;3.800;2023-03-02T15:40:57;19.33;;;9.70;;
22778;SDS011;11556;51.194;3.800;2023-03-02T15:43:27;16.73;;;8.80;;
22778;SDS011;11556;51.194;3.800;2023-03-02T15:45:52;20.48;;;9.38;;
22778;SDS011;11556;51.194;3.800;2023-03-02T15:48:18;21.33;;;9.50;;
22778;SDS011;11556;51.194;3.800;2023-03-02T15:50:44;16.98;;;8.85;;
22778;SDS011;11556;51.194;3.800;2023-03-02T15:53:20;16.00;;;8.80;;
22778;SDS011;11556;51.194;3.800;2023-03-02T15:55:45;20.48;;;9.20;;
22778;SDS011;11556;51.194;3.800;2023-03-02T15:58:11;16.15;;;8.07;;
22778;SDS011;11556;51.194;3.800;2023-03-02T16:00:36;16.10;;;8.20;;